Time;durP1;ratioP1;P1;durP2;ratioP2;P2;SDS_P1;SDS_P2;PMS_P1;PMS_P2;Temp;Humidity;BMP_temperature;BMP_pressure;BME280_temperature;BME280_humidity;BME280_pressure;Samples;Min_cycle;Max_cycle;Signal;HPM_P1;HPM_P2
2021/05/01 00:06:21;;;;;;;0.20;0.20;;;16.00;99.90;;;;;;20706722;28;20240;-74
2021/05/01 00:16:25;;;;;;;0.30;0.30;;;16.10;99.90;;;;;;20766095;28;20361;-73
2021/05/01 00:26:28;;;;;;;0.20;0.10;;;16.00;99.90;;;;;;20783891;28;20194;-74
2021/05/01 00:36:31;;;;;;;0.20;0.10;;;15.80;99.90;;;;;;20783344;28;20226;-73
2021/05/01 00:46:34;;;;;;;0.20;0.20;;;15.60;99.90;;;;;;20782053;28;20634;-73
2021/05/01 00:56:38;;;;;;;0.20;0.20;;;15.50;99.90;;;;;;20779713;28;20217;-74
2021/05/01 01:06:40;;;;;;;0.20;0.10;;;15.50;99.90;;;;;;20718312;28;20219;-74
2021/05/01 01:16:45;;;;;;;0.20;0.00;;;15.50;99.90;;;;;;20698605;28;20231;-74
2021/05/01 01:26:49;;;;;;;1.47;0.80;;;15.60;99.90;;;;;;20680715;28;20206;-73
2021/05/01 01:36:52;;;;;;;0.20;0.10;;;15.60;99.90;;;;;;20679525;28;20234;-73
2021/05/01 01:46:55;;;;;;;0.20;0.10;;;15.60;99.90;;;;;;20696771;28;20210;-74
2021/05/01 01:56:59;;;;;;;0.20;0.10;;;15.60;99.90;;;;;;20697092;28;20230;-73
2021/05/01 02:07:03;;;;;;;0.20;0.00;;;15.50;99.90;;;;;;20743273;28;20360;-72
2021/05/01 02:17:07;;;;;;;0.20;0.10;;;15.60;99.90;;;;;;20723622;28;20225;-72
2021/05/01 02:27:11;;;;;;;0.30;0.30;;;15.50;99.90;;;;;;20695204;28;20437;-74
2021/05/01 02:37:15;;;;;;;0.20;0.10;;;15.60;99.90;;;;;;20678640;28;20296;-73
2021/05/01 02:47:19;;;;;;;0.20;0.13;;;15.60;99.90;;;;;;20688976;28;20293;-74
2021/05/01 02:57:21;;;;;;;0.20;0.10;;;15.60;99.90;;;;;;20676038;28;20230;-76
2021/05/01 03:07:25;;;;;;;0.20;0.17;;;15.70;99.90;;;;;;20762376;28;20363;-76
2021/05/01 03:17:28;;;;;;;0.30;0.30;;;15.60;99.90;;;;;;20755887;28;20577;-73
2021/05/01 03:27:31;;;;;;;0.37;0.30;;;15.60;99.90;;;;;;20773665;28;20209;-72
2021/05/01 03:37:34;;;;;;;0.20;0.10;;;15.50;99.90;;;;;;20772184;28;20232;-74
2021/05/01 03:47:38;;;;;;;0.30;0.13;;;15.40;99.90;;;;;;20779283;28;20281;-72
2021/05/01 03:57:41;;;;;;;0.20;0.00;;;14.60;99.90;;;;;;20787514;28;20218;-73
2021/05/01 04:07:45;;;;;;;0.20;0.10;;;14.40;99.90;;;;;;20785685;28;20222;-73
2021/05/01 04:17:48;;;;;;;1.20;0.53;;;14.50;99.90;;;;;;20764620;28;20229;-71
2021/05/01 04:27:51;;;;;;;0.20;0.20;;;14.20;99.90;;;;;;20784457;28;20251;-71
2021/05/01 04:37:54;;;;;;;0.70;0.30;;;14.00;99.90;;;;;;20782673;28;20225;-69
2021/05/01 04:47:58;;;;;;;0.50;0.50;;;13.70;99.90;;;;;;20782164;28;20209;-70
2021/05/01 04:58:00;;;;;;;0.83;0.73;;;13.50;99.90;;;;;;20777843;28;20230;-69
2021/05/01 05:08:04;;;;;;;0.30;0.30;;;13.30;99.90;;;;;;20704414;28;20646;-70
2021/05/01 05:18:07;;;;;;;0.30;0.17;;;13.30;99.90;;;;;;20695651;28;20226;-70
2021/05/01 05:28:10;;;;;;;0.20;0.10;;;13.10;99.90;;;;;;20679749;28;20206;-73
2021/05/01 05:38:13;;;;;;;0.20;0.00;;;12.80;99.90;;;;;;20693870;28;20557;-72
2021/05/01 05:48:16;;;;;;;0.20;0.10;;;12.80;99.90;;;;;;20695295;28;20442;-70
2021/05/01 05:58:19;;;;;;;0.20;0.10;;;12.60;99.90;;;;;;20693306;28;20222;-68
2021/05/01 06:08:23;;;;;;;0.20;0.20;;;12.60;99.90;;;;;;20768807;28;20230;-68
2021/05/01 06:18:28;;;;;;;0.20;0.10;;;12.60;99.90;;;;;;20770451;28;20225;-70
2021/05/01 06:28:32;;;;;;;0.20;0.20;;;13.00;99.90;;;;;;20775405;28;20284;-72
2021/05/01 06:38:35;;;;;;;0.20;0.00;;;13.00;99.90;;;;;;20772372;28;20233;-70
2021/05/01 06:48:39;;;;;;;0.50;0.50;;;13.00;99.90;;;;;;20775022;28;20760;-71
2021/05/01 06:58:43;;;;;;;0.97;0.93;;;13.20;99.90;;;;;;20771997;28;20624;-69
2021/05/01 07:08:46;;;;;;;2.00;0.83;;;13.20;99.90;;;;;;20693705;28;20321;-70
2021/05/01 07:18:49;;;;;;;0.20;0.10;;;13.20;99.90;;;;;;20688927;28;20651;-70
2021/05/01 07:28:55;;;;;;;0.20;0.00;;;13.20;99.90;;;;;;20707354;28;21016;-68
2021/05/01 07:39:00;;;;;;;6.40;0.93;;;13.20;99.90;;;;;;20701802;28;20264;-71
2021/05/01 07:49:06;;;;;;;0.20;0.00;;;13.40;99.90;;;;;;20685957;28;20235;-71
2021/05/01 07:59:10;;;;;;;0.20;0.00;;;13.60;99.90;;;;;;20698715;28;20691;-71
2021/05/01 08:09:13;;;;;;;0.20;0.00;;;13.60;99.90;;;;;;20653274;28;20297;-70
2021/05/01 08:19:16;;;;;;;0.20;0.00;;;13.70;99.90;;;;;;20572746;28;20215;-69
2021/05/01 08:29:19;;;;;;;0.30;0.23;;;13.70;99.90;;;;;;20599839;28;20196;-72
2021/05/01 08:39:23;;;;;;;0.20;0.00;;;13.50;99.90;;;;;;20616409;28;20230;-69
2021/05/01 08:49:27;;;;;;;0.20;0.10;;;13.70;99.90;;;;;;20600990;28;20286;-73
2021/05/01 08:59:30;;;;;;;0.20;0.00;;;13.70;99.90;;;;;;20619445;28;20587;-70
2021/05/01 09:09:34;;;;;;;0.40;0.30;;;13.90;99.90;;;;;;20614996;28;20578;-71
2021/05/01 09:19:38;;;;;;;0.20;0.10;;;14.10;99.90;;;;;;20621818;28;20223;-71
2021/05/01 09:29:41;;;;;;;0.20;0.00;;;14.40;99.90;;;;;;20613770;28;20207;-70
2021/05/01 09:39:49;;;;;;;0.20;0.20;;;14.50;99.90;;;;;;20613615;28;20231;-70
2021/05/01 09:49:53;;;;;;;0.37;0.30;;;14.70;99.90;;;;;;20612780;28;20208;-71
2021/05/01 09:59:55;;;;;;;0.47;0.47;;;14.80;99.90;;;;;;20611582;28;20564;-72
2021/05/01 10:09:59;;;;;;;0.20;0.07;;;14.80;99.90;;;;;;20644421;28;20238;-71
2021/05/01 10:20:06;;;;;;;0.20;0.00;;;14.80;99.90;;;;;;20691861;28;20265;-70
2021/05/01 10:30:16;;;;;;;0.27;0.10;;;14.80;99.90;;;;;;20689673;28;20202;-72
2021/05/01 10:40:20;;;;;;;0.20;0.00;;;15.20;99.90;;;;;;20690097;28;20206;-73
2021/05/01 10:50:24;;;;;;;0.20;0.20;;;15.30;99.90;;;;;;20687296;28;20551;-69
2021/05/01 11:00:42;;;;;;;0.50;0.50;;;15.30;99.90;;;;;;20686029;28;20620;-72
2021/05/01 11:10:47;;;;;;;0.20;0.00;;;15.30;99.90;;;;;;20672121;28;20281;-72
2021/05/01 11:20:52;;;;;;;0.20;0.10;;;15.30;99.90;;;;;;20703950;28;20205;-71
2021/05/01 11:30:56;;;;;;;0.20;0.10;;;15.30;99.90;;;;;;20704427;28;20223;-75
2021/05/01 11:40:59;;;;;;;0.77;0.77;;;15.00;99.90;;;;;;20664114;28;20529;-72
2021/05/01 11:51:05;;;;;;;1.03;0.60;;;15.20;99.90;;;;;;20642925;28;20602;-75
2021/05/01 12:01:15;;;;;;;0.23;0.23;;;15.60;99.90;;;;;;20689280;28;20925;-74
2021/05/01 12:11:20;;;;;;;0.30;0.30;;;16.90;99.90;;;;;;20666794;28;20249;-72
2021/05/01 12:21:25;;;;;;;1.30;1.20;;;17.70;99.90;;;;;;20752071;28;21116;-75
2021/05/01 12:31:42;;;;;;;1.03;1.03;;;18.90;99.90;;;;;;20694971;28;20227;-73
2021/05/01 12:41:50;;;;;;;0.63;0.35;;;20.40;99.90;;;;;;20694207;28;20436;-79
2021/05/01 12:52:05;;;;;;;1.70;1.03;;;21.30;99.90;;;;;;20753485;28;20227;-80
2021/05/01 13:02:17;;;;;;;0.20;0.10;;;21.40;99.90;;;;;;20705056;28;20213;-77
2021/05/01 13:12:24;;;;;;;0.33;0.33;;;21.00;99.90;;;;;;20711866;28;20249;-77
2021/05/01 13:22:29;;;;;;;0.93;0.30;;;19.40;99.90;;;;;;20714538;28;20210;-77
2021/05/01 13:32:33;;;;;;;0.20;0.10;;;19.30;99.90;;;;;;20672081;28;20985;-79
2021/05/01 13:42:40;;;;;;;0.20;0.10;;;19.20;99.90;;;;;;20689787;28;20206;-80
2021/05/01 13:52:45;;;;;;;0.20;0.20;;;21.00;99.90;;;;;;20698803;28;20281;-71
2021/05/01 14:02:49;;;;;;;0.30;0.30;;;18.60;99.90;;;;;;20693751;28;20715;-70
2021/05/01 14:12:53;;;;;;;1.90;0.47;;;18.00;99.90;;;;;;20694821;28;20226;-73
2021/05/01 14:22:58;;;;;;;0.37;0.33;;;18.00;99.90;;;;;;20692900;28;20194;-74
2021/05/01 14:43:42;;;;;;;0.30;0.13;;;18.70;99.90;;;;;;20372170;29;20503;-74
2021/05/01 14:54:01;;;;;;;0.57;0.37;;;22.60;99.90;;;;;;20371808;29;20229;-74
2021/05/01 15:04:11;;;;;;;0.20;0.10;;;22.10;99.90;;;;;;20369228;29;20204;-73
2021/05/01 15:14:21;;;;;;;0.20;0.07;;;24.30;99.90;;;;;;20336110;29;20412;-72
2021/05/01 15:24:25;;;;;;;0.30;0.23;;;22.90;99.90;;;;;;20434509;23;20235;-74
2021/05/01 15:34:28;;;;;;;0.20;0.00;;;22.80;99.90;;;;;;20607695;23;20242;-75
2021/05/01 15:44:34;;;;;;;1.03;0.90;;;19.60;99.90;;;;;;20614127;28;20350;-75
2021/05/01 15:54:37;;;;;;;0.20;0.20;;;20.70;99.90;;;;;;20599555;28;20231;-75
2021/05/01 16:04:48;;;;;;;0.20;0.10;;;19.50;99.90;;;;;;20665964;28;20203;-72
2021/05/01 16:14:51;;;;;;;0.20;0.20;;;19.50;99.90;;;;;;20623361;28;20218;-73
2021/05/01 16:24:54;;;;;;;0.60;0.60;;;19.20;99.90;;;;;;20628435;28;20284;-71
2021/05/01 16:34:57;;;;;;;0.20;0.10;;;18.70;99.90;;;;;;20580165;28;20239;-70
2021/05/01 16:45:01;;;;;;;0.23;0.20;;;19.20;99.90;;;;;;20599441;28;20279;-73
2021/05/01 16:55:05;;;;;;;0.23;0.23;;;19.00;99.90;;;;;;20613635;28;20305;-71
2021/05/01 17:05:11;;;;;;;0.20;0.10;;;18.10;99.90;;;;;;20598608;28;21034;-73
2021/05/01 17:15:14;;;;;;;0.20;0.10;;;17.60;99.90;;;;;;20594910;28;20223;-72
2021/05/01 17:25:17;;;;;;;0.30;0.30;;;17.20;99.90;;;;;;20612891;28;20246;-74
2021/05/01 17:35:22;;;;;;;0.33;0.33;;;17.00;99.90;;;;;;20609976;28;20312;-73
2021/05/01 17:45:26;;;;;;;0.20;0.10;;;18.40;99.90;;;;;;20611909;28;20558;-73
2021/05/01 17:55:28;;;;;;;0.30;0.30;;;18.00;99.90;;;;;;20609576;28;20226;-73
2021/05/01 18:05:33;;;;;;;1.73;1.60;;;17.00;99.90;;;;;;20611391;28;20203;-72
2021/05/01 18:15:36;;;;;;;1.70;1.60;;;16.60;99.90;;;;;;20621354;28;20386;-74
2021/05/01 18:25:40;;;;;;;1.30;0.27;;;16.50;99.90;;;;;;20656236;28;20234;-75
2021/05/01 18:35:42;;;;;;;1.77;0.73;;;16.40;99.90;;;;;;20517367;28;20240;-79
2021/05/01 18:45:46;;;;;;;3.90;1.40;;;16.50;99.90;;;;;;20565700;28;20196;-76
2021/05/01 18:55:55;;;;;;;1.90;1.47;;;16.30;99.90;;;;;;20594471;28;20377;-76
2021/05/01 19:06:06;;;;;;;1.07;0.33;;;16.40;99.90;;;;;;20630586;23;20252;-77
2021/05/01 19:16:09;;;;;;;0.20;0.20;;;16.10;99.90;;;;;;20693685;28;20321;-77
2021/05/01 19:26:19;;;;;;;0.20;0.10;;;16.00;99.90;;;;;;20711675;28;20199;-79
2021/05/01 19:36:22;;;;;;;1.40;0.83;;;15.90;99.90;;;;;;20710619;28;20222;-79
2021/05/01 19:46:30;;;;;;;0.20;0.10;;;15.90;99.90;;;;;;20705897;28;20203;-77
2021/05/01 19:56:33;;;;;;;0.20;0.10;;;16.10;99.90;;;;;;20708349;28;20579;-85
2021/05/01 20:06:37;;;;;;;0.37;0.37;;;15.50;99.90;;;;;;20675993;28;20645;-83
2021/05/01 20:16:41;;;;;;;0.70;0.47;;;15.30;99.90;;;;;;20706594;28;20231;-79
2021/05/01 20:26:45;;;;;;;0.20;0.10;;;15.30;99.90;;;;;;20673272;28;20309;-80
2021/05/01 20:36:49;;;;;;;1.07;0.97;;;15.40;99.90;;;;;;20685509;28;20826;-76
2021/05/01 20:46:57;;;;;;;0.40;0.40;;;15.60;99.90;;;;;;20687473;28;20381;-80
2021/05/01 20:57:00;;;;;;;0.20;0.00;;;15.60;99.90;;;;;;20683613;28;20580;-79
2021/05/01 21:07:04;;;;;;;0.20;0.20;;;15.50;99.90;;;;;;20767148;28;20230;-79
2021/05/01 21:17:08;;;;;;;0.20;0.10;;;15.50;99.90;;;;;;20695025;28;20751;-77
2021/05/01 21:27:12;;;;;;;0.30;0.13;;;15.40;99.90;;;;;;20696735;28;20191;-80
2021/05/01 21:37:15;;;;;;;0.20;0.03;;;15.40;99.90;;;;;;20678461;28;20234;-77
2021/05/01 21:47:20;;;;;;;0.20;0.10;;;15.30;99.90;;;;;;20679790;28;20207;-84
2021/05/01 21:57:22;;;;;;;0.93;0.40;;;15.20;99.90;;;;;;20710231;28;20229;-76
2021/05/01 22:07:26;;;;;;;0.20;0.10;;;14.90;99.90;;;;;;20707766;28;21081;-76
2021/05/01 22:17:29;;;;;;;0.20;0.00;;;14.80;99.90;;;;;;20692379;28;20227;-79
2021/05/01 22:27:33;;;;;;;0.20;0.03;;;14.70;99.90;;;;;;20679021;28;20209;-78
2021/05/01 22:37:35;;;;;;;0.20;0.13;;;14.70;99.90;;;;;;20692675;28;20237;-79
2021/05/01 22:47:41;;;;;;;0.20;0.10;;;14.60;99.90;;;;;;20693074;28;20238;-76
2021/05/01 22:57:44;;;;;;;0.20;0.00;;;14.60;99.90;;;;;;20691292;28;20754;-77
2021/05/01 23:07:47;;;;;;;0.30;0.20;;;14.60;99.90;;;;;;20693839;28;20222;-80
2021/05/01 23:17:51;;;;;;;0.20;0.00;;;14.50;99.90;;;;;;20691427;28;20222;-81
2021/05/01 23:27:56;;;;;;;0.20;0.00;;;14.20;99.90;;;;;;20693285;28;20202;-79
2021/05/01 23:38:01;;;;;;;0.20;0.00;;;14.10;99.90;;;;;;20693160;28;20705;-77
2021/05/01 23:48:10;;;;;;;0.20;0.10;;;13.80;99.90;;;;;;20693734;28;20195;-80
2021/05/01 23:58:12;;;;;;;0.20;0.00;;;13.70;99.90;;;;;;20691324;28;20223;-81
